Time;durP1;ratioP1;P1;durP2;ratioP2;P2;SDS_P1;SDS_P2;PMS_P1;PMS_P2;Temp;Humidity;BMP_temperature;BMP_pressure;BME280_temperature;BME280_humidity;BME280_pressure;Samples;Min_cycle;Max_cycle;Signal;HPM_P1;HPM_P2
2022/06/12 00:01:30;;;;;;;6.68;2.60;;;10.40;99.90;;;;;;4933013;28;20122;-77
2022/06/12 00:03:59;;;;;;;3.90;2.53;;;10.40;99.90;;;;;;4925531;28;20043;-76
2022/06/12 00:06:28;;;;;;;3.97;2.83;;;10.40;99.90;;;;;;4938189;28;20042;-77
2022/06/12 00:09:00;;;;;;;6.28;2.65;;;10.40;99.90;;;;;;4936870;29;20039;-77
2022/06/12 00:11:27;;;;;;;4.75;2.45;;;10.30;99.90;;;;;;4936964;29;20513;-77
2022/06/12 00:14:00;;;;;;;4.78;2.78;;;10.30;99.90;;;;;;4927208;28;20046;-77
2022/06/12 00:16:32;;;;;;;6.45;2.50;;;10.30;99.90;;;;;;4926627;29;20042;-76
2022/06/12 00:18:58;;;;;;;5.72;2.78;;;10.30;99.90;;;;;;4953200;28;20039;-77
2022/06/12 00:21:31;;;;;;;6.13;2.50;;;10.30;99.90;;;;;;4930375;29;20040;-77
2022/06/12 00:24:05;;;;;;;3.53;2.95;;;10.20;99.90;;;;;;4928436;28;20043;-77
2022/06/12 00:26:38;;;;;;;4.30;2.58;;;10.20;99.90;;;;;;4942959;28;20043;-77
2022/06/12 00:29:23;;;;;;;3.45;2.33;;;10.20;99.90;;;;;;4930699;28;20035;-77
2022/06/12 00:32:01;;;;;;;6.10;2.85;;;10.20;99.90;;;;;;4919217;28;20070;-76
2022/06/12 00:34:35;;;;;;;4.40;2.33;;;10.10;99.90;;;;;;4940943;29;20118;-77
2022/06/12 00:37:04;;;;;;;5.53;2.40;;;10.10;99.90;;;;;;4938276;28;20529;-77
2022/06/12 00:39:39;;;;;;;6.05;2.70;;;10.10;99.90;;;;;;4940902;28;20080;-77
2022/06/12 00:42:09;;;;;;;5.05;2.75;;;10.10;99.90;;;;;;4939669;28;20105;-77
2022/06/12 00:44:41;;;;;;;4.20;2.65;;;10.10;99.90;;;;;;4930933;28;20101;-77
2022/06/12 00:47:17;;;;;;;5.03;2.50;;;10.10;99.90;;;;;;4926249;28;20043;-77
2022/06/12 00:50:13;;;;;;;3.55;2.30;;;10.00;99.90;;;;;;4930479;28;20130;-77
2022/06/12 00:52:49;;;;;;;2.72;2.00;;;10.00;99.90;;;;;;4939660;28;20141;-77
2022/06/12 00:55:37;;;;;;;6.55;2.63;;;10.00;99.90;;;;;;4939775;28;20054;-76
2022/06/12 00:58:19;;;;;;;5.22;2.70;;;10.00;99.90;;;;;;4926540;29;20401;-77
2022/06/12 01:00:47;;;;;;;6.47;2.95;;;9.90;99.90;;;;;;4939449;28;20102;-76
2022/06/12 01:03:13;;;;;;;6.25;3.25;;;9.90;99.90;;;;;;4934592;28;20047;-77
2022/06/12 01:08:24;;;;;;;6.70;3.30;;;10.00;99.90;;;;;;4916708;29;20052;-77
2022/06/12 01:10:55;;;;;;;6.05;2.92;;;10.00;99.90;;;;;;4933891;28;20457;-77
2022/06/12 01:13:31;;;;;;;5.55;3.00;;;10.00;99.90;;;;;;4926309;29;20553;-77
2022/06/12 01:16:01;;;;;;;6.32;3.13;;;10.00;99.90;;;;;;4924318;28;20040;-77
2022/06/12 01:18:34;;;;;;;5.75;3.40;;;10.10;99.90;;;;;;4931368;28;20137;-77
2022/06/12 01:21:15;;;;;;;;;;;10.10;99.90;;;;;;4939855;28;20048;-77
2022/06/12 01:24:14;;;;;;;4.97;3.00;;;10.20;99.90;;;;;;4927582;29;19919;-77
2022/06/12 01:27:11;;;;;;;7.38;2.60;;;10.20;99.90;;;;;;4897962;28;20086;-77
2022/06/12 01:29:46;;;;;;;6.43;3.25;;;10.10;99.90;;;;;;4931222;28;20035;-77
2022/06/12 01:32:31;;;;;;;5.38;2.97;;;10.10;99.90;;;;;;4924793;28;20090;-77
2022/06/12 01:35:28;;;;;;;4.80;2.75;;;10.10;99.90;;;;;;4929174;28;20126;-77
2022/06/12 01:38:23;;;;;;;4.50;2.75;;;10.10;99.90;;;;;;4930450;28;20047;-77
2022/06/12 01:40:58;;;;;;;6.72;3.15;;;10.10;99.90;;;;;;4927490;28;20082;-77
2022/06/12 01:43:48;;;;;;;5.88;3.42;;;10.10;99.90;;;;;;4936502;29;20552;-77
2022/06/12 01:46:24;;;;;;;6.35;3.38;;;10.00;99.90;;;;;;4934383;28;20058;-77
2022/06/12 01:49:08;;;;;;;6.25;3.22;;;10.00;99.90;;;;;;4958239;28;20130;-77
2022/06/12 01:51:39;;;;;;;6.70;3.53;;;10.00;99.90;;;;;;4936332;29;20043;-77
2022/06/12 01:54:36;;;;;;;8.57;3.35;;;10.00;99.90;;;;;;4934687;28;20085;-77
2022/06/12 01:57:26;;;;;;;7.53;3.47;;;10.00;99.90;;;;;;4934462;28;20053;-77
2022/06/12 02:00:09;;;;;;;5.07;3.50;;;10.00;99.90;;;;;;4942332;28;20198;-77
2022/06/12 02:02:46;;;;;;;8.55;4.32;;;10.00;99.90;;;;;;4930930;28;20047;-77
2022/06/12 02:05:18;;;;;;;7.03;4.03;;;9.90;99.90;;;;;;4945982;28;20035;-77
2022/06/12 02:08:10;;;;;;;8.88;3.85;;;10.00;99.90;;;;;;4957812;28;20122;-77
2022/06/12 02:10:44;;;;;;;7.95;3.55;;;9.90;99.90;;;;;;4942899;28;20035;-77
2022/06/12 02:13:36;;;;;;;9.18;3.70;;;9.90;99.90;;;;;;4954313;28;20047;-77
2022/06/12 02:16:15;;;;;;;7.07;3.75;;;9.90;99.90;;;;;;4927250;28;20158;-77
2022/06/12 02:18:46;;;;;;;5.25;3.70;;;9.90;99.90;;;;;;4954704;28;20209;-77
2022/06/12 02:21:30;;;;;;;7.20;3.75;;;9.90;99.90;;;;;;4922877;29;20047;-77
2022/06/12 02:24:07;;;;;;;9.15;4.10;;;9.90;99.90;;;;;;4924073;28;20446;-77
2022/06/12 02:26:39;;;;;;;10.25;3.80;;;9.90;99.90;;;;;;4933691;28;20043;-78
2022/06/12 02:29:15;;;;;;;6.50;3.38;;;9.90;99.90;;;;;;4942173;28;20034;-77
2022/06/12 02:31:44;;;;;;;7.35;3.25;;;9.90;99.90;;;;;;4944561;29;20027;-77
2022/06/12 02:34:24;;;;;;;7.10;3.40;;;9.90;99.90;;;;;;4938427;28;20490;-77
2022/06/12 02:36:57;;;;;;;5.82;3.10;;;9.90;99.90;;;;;;4939911;28;20398;-77
2022/06/12 02:39:26;;;;;;;;;;;9.90;99.90;;;;;;4939545;28;20066;-77
2022/06/12 02:42:00;;;;;;;8.18;3.10;;;9.90;99.90;;;;;;4938000;28;20407;-77
2022/06/12 02:44:42;;;;;;;6.80;3.05;;;9.90;99.90;;;;;;4943601;29;20043;-77
2022/06/12 02:47:18;;;;;;;3.65;2.30;;;9.90;99.90;;;;;;4925187;28;20038;-77
2022/06/12 02:49:47;;;;;;;7.03;2.92;;;9.80;99.90;;;;;;4941484;28;20043;-77
2022/06/12 02:52:19;;;;;;;5.90;3.00;;;9.80;99.90;;;;;;4932121;28;20070;-77
2022/06/12 02:55:11;;;;;;;7.45;2.60;;;9.80;99.90;;;;;;4932576;28;20046;-77
2022/06/12 02:58:33;;;;;;;5.60;3.10;;;9.80;99.90;;;;;;4931968;29;20119;-77
2022/06/12 03:01:11;;;;;;;4.80;2.80;;;9.70;99.90;;;;;;4846147;29;20063;-77
2022/06/12 03:04:12;;;;;;;4.80;2.70;;;9.70;99.90;;;;;;4853266;29;20049;-77
2022/06/12 03:06:40;;;;;;;6.45;2.80;;;9.70;99.90;;;;;;4926960;29;20055;-77
2022/06/12 03:09:07;;;;;;;6.82;2.95;;;9.70;99.90;;;;;;4937975;29;20035;-77
2022/06/12 03:11:40;;;;;;;7.80;3.17;;;9.70;99.90;;;;;;4949493;29;20039;-77
2022/06/12 03:14:09;;;;;;;6.50;2.92;;;9.70;99.90;;;;;;4929698;28;20045;-77
2022/06/12 03:16:39;;;;;;;7.05;2.60;;;9.80;99.90;;;;;;4925505;28;20031;-77
2022/06/12 03:19:17;;;;;;;7.57;3.45;;;9.70;99.90;;;;;;4925901;28;20453;-77
2022/06/12 03:22:35;;;;;;;6.57;3.00;;;9.70;99.90;;;;;;4931730;28;20042;-77
2022/06/12 03:25:04;;;;;;;8.85;3.40;;;9.70;99.90;;;;;;4933000;28;20039;-77
2022/06/12 03:27:41;;;;;;;7.07;2.60;;;9.70;99.90;;;;;;4940865;28;20078;-77
2022/06/12 03:30:36;;;;;;;6.78;2.85;;;9.70;99.90;;;;;;4934264;28;20038;-77
2022/06/12 03:33:15;;;;;;;7.90;2.50;;;9.70;99.90;;;;;;4904591;28;20043;-77
2022/06/12 03:36:05;;;;;;;6.82;3.00;;;9.80;99.90;;;;;;4937609;28;20101;-76
2022/06/12 03:38:38;;;;;;;6.75;2.80;;;9.80;99.90;;;;;;4921709;29;20050;-77
2022/06/12 03:41:41;;;;;;;5.07;2.53;;;9.80;99.90;;;;;;4921075;29;20146;-77
2022/06/12 03:44:27;;;;;;;6.25;2.83;;;9.80;99.90;;;;;;4913521;28;20042;-77
2022/06/12 03:47:07;;;;;;;6.97;2.42;;;9.90;99.90;;;;;;4932580;28;20050;-77
2022/06/12 03:49:59;;;;;;;7.35;2.90;;;9.90;99.90;;;;;;4928463;29;20130;-77
2022/06/12 03:52:39;;;;;;;8.38;2.75;;;9.90;99.90;;;;;;4934662;28;20085;-77
2022/06/12 03:55:12;;;;;;;7.00;2.67;;;9.90;99.90;;;;;;4932594;28;20085;-77
2022/06/12 03:57:51;;;;;;;5.53;2.63;;;10.00;99.90;;;;;;4933630;29;20419;-77
2022/06/12 04:00:27;;;;;;;7.80;2.97;;;10.00;99.90;;;;;;4921087;28;20050;-77
2022/06/12 04:03:20;;;;;;;7.32;2.83;;;10.00;99.90;;;;;;4930444;28;20053;-77
2022/06/12 04:05:56;;;;;;;7.40;2.53;;;10.10;99.90;;;;;;4937332;28;20050;-77
2022/06/12 04:08:27;;;;;;;7.93;2.88;;;10.10;99.90;;;;;;4939824;28;20165;-77
2022/06/12 04:10:55;;;;;;;5.75;3.45;;;10.20;99.90;;;;;;4935699;28;20090;-77
2022/06/12 04:13:23;;;;;;;8.43;2.92;;;10.20;99.90;;;;;;4936684;28;20046;-77
2022/06/12 04:15:56;;;;;;;4.13;2.53;;;10.30;99.90;;;;;;4942440;28;20070;-77
2022/06/12 04:18:25;;;;;;;7.50;2.72;;;10.30;99.90;;;;;;4933157;29;20101;-77
2022/06/12 04:21:16;;;;;;;12.40;3.38;;;10.40;99.90;;;;;;4928907;28;20051;-77
2022/06/12 04:23:53;;;;;;;6.72;2.58;;;10.40;99.90;;;;;;4926967;28;20482;-77
2022/06/12 04:26:39;;;;;;;7.25;3.85;;;10.60;99.90;;;;;;4932706;28;20500;-78
2022/06/12 04:29:05;;;;;;;6.22;2.75;;;10.80;99.90;;;;;;4938212;28;20039;-77
2022/06/12 04:31:33;;;;;;;6.13;2.53;;;11.00;99.90;;;;;;4934428;28;20046;-77
2022/06/12 04:34:11;;;;;;;7.63;2.60;;;11.20;99.90;;;;;;4938027;28;20045;-77
2022/06/12 04:36:39;;;;;;;10.52;2.85;;;11.50;99.90;;;;;;4946360;28;20129;-77
2022/06/12 04:39:06;;;;;;;6.03;2.53;;;11.70;99.90;;;;;;4937583;28;20493;-77
2022/06/12 04:41:35;;;;;;;5.30;2.40;;;12.00;99.90;;;;;;4933924;29;20047;-78
2022/06/12 04:44:03;;;;;;;4.93;2.30;;;12.20;99.90;;;;;;4930246;28;20118;-78
2022/06/12 04:46:30;;;;;;;10.68;3.22;;;12.50;99.90;;;;;;4922759;29;20051;-78
2022/06/12 04:48:57;;;;;;;7.03;2.35;;;12.70;99.90;;;;;;4922673;29;20043;-78
2022/06/12 04:51:27;;;;;;;7.93;2.95;;;13.00;99.90;;;;;;4927487;28;20134;-79
2022/06/12 04:53:53;;;;;;;8.35;2.70;;;13.20;99.90;;;;;;4932858;28;20097;-78
2022/06/12 04:56:22;;;;;;;3.35;2.28;;;13.50;99.90;;;;;;4937859;29;20059;-78
2022/06/12 04:58:48;;;;;;;6.63;2.40;;;13.80;99.90;;;;;;4938126;29;20109;-78
2022/06/12 05:01:14;;;;;;;8.13;2.40;;;14.00;99.90;;;;;;4933019;28;20039;-78
2022/06/12 05:03:42;;;;;;;5.13;2.22;;;14.30;99.90;;;;;;4949140;28;20511;-78
2022/06/12 05:06:13;;;;;;;6.10;2.30;;;14.60;99.90;;;;;;4941079;28;20151;-78
2022/06/12 05:08:41;;;;;;;8.50;2.90;;;14.80;99.90;;;;;;4926026;29;20078;-78
2022/06/12 05:11:08;;;;;;;5.40;2.20;;;15.10;99.90;;;;;;4906590;28;20035;-78
2022/06/12 05:13:36;;;;;;;5.47;2.15;;;15.30;99.90;;;;;;4928495;28;20315;-78
2022/06/12 05:16:02;;;;;;;5.60;2.20;;;15.40;99.90;;;;;;4942421;28;20045;-78
2022/06/12 05:18:28;;;;;;;6.65;2.70;;;15.60;99.90;;;;;;4940835;28;20057;-78
2022/06/12 05:20:54;;;;;;;6.53;2.40;;;15.60;99.90;;;;;;4932929;28;20055;-78
2022/06/12 05:23:21;;;;;;;8.10;2.58;;;15.60;99.90;;;;;;4932635;28;20409;-78
2022/06/12 05:25:48;;;;;;;5.93;1.88;;;15.70;99.90;;;;;;4951403;28;20051;-79
2022/06/12 05:28:19;;;;;;;5.75;2.10;;;15.70;99.90;;;;;;4927007;29;20133;-78
2022/06/12 05:30:50;;;;;;;5.18;2.22;;;15.80;99.90;;;;;;4929424;28;20042;-79
2022/06/12 05:33:19;;;;;;;9.40;2.40;;;16.00;99.90;;;;;;4947670;28;20124;-79
2022/06/12 05:35:50;;;;;;;7.32;2.10;;;16.10;99.90;;;;;;4934184;28;20040;-79
2022/06/12 05:38:16;;;;;;;7.32;2.50;;;16.30;99.90;;;;;;4938806;28;20054;-79
2022/06/12 05:40:59;;;;;;;6.65;2.20;;;16.50;99.90;;;;;;4935469;28;20046;-79
2022/06/12 05:43:34;;;;;;;7.85;2.15;;;16.50;99.90;;;;;;4948134;28;20043;-79
2022/06/12 05:46:18;;;;;;;7.65;2.30;;;16.70;99.90;;;;;;4932994;29;20039;-79
2022/06/12 05:49:00;;;;;;;7.20;2.20;;;16.90;99.90;;;;;;4941655;28;20521;-79
2022/06/12 05:51:57;;;;;;;5.88;2.20;;;16.80;99.90;;;;;;4953150;29;20043;-79
2022/06/12 05:54:38;;;;;;;10.90;2.38;;;16.80;99.90;;;;;;4940357;28;20074;-79
2022/06/12 05:57:06;;;;;;;5.53;2.10;;;16.50;99.90;;;;;;4921657;28;20053;-79
2022/06/12 05:59:33;;;;;;;5.80;2.10;;;16.30;99.90;;;;;;4926848;29;20071;-79
2022/06/12 06:02:02;;;;;;;5.93;2.53;;;16.20;99.90;;;;;;4925542;28;20043;-79
2022/06/12 06:04:35;;;;;;;7.80;2.33;;;16.20;99.90;;;;;;4937206;29;20047;-79
2022/06/12 06:07:06;;;;;;;7.68;2.80;;;16.10;99.90;;;;;;4924206;29;20460;-78
2022/06/12 06:09:35;;;;;;;7.13;2.72;;;16.20;99.90;;;;;;4937591;28;20092;-79
2022/06/12 06:12:12;;;;;;;6.13;2.67;;;16.20;99.90;;;;;;4932442;28;20144;-79
2022/06/12 06:14:40;;;;;;;8.10;3.10;;;16.20;99.90;;;;;;4927865;29;20047;-78
2022/06/12 06:17:16;;;;;;;6.53;2.70;;;16.20;99.90;;;;;;4924179;29;20047;-79
2022/06/12 06:20:07;;;;;;;7.63;2.83;;;16.30;99.90;;;;;;4936946;28;20039;-79
2022/06/12 06:23:14;;;;;;;8.20;2.97;;;16.40;99.90;;;;;;4924801;28;20045;-79
2022/06/12 06:25:43;;;;;;;7.68;3.28;;;16.40;99.90;;;;;;4884655;28;20055;-79
2022/06/12 06:28:28;;;;;;;9.88;3.17;;;16.40;99.90;;;;;;4941023;28;20457;-80
2022/06/12 06:31:00;;;;;;;7.60;3.00;;;16.40;99.90;;;;;;4934007;28;20043;-78
2022/06/12 06:33:54;;;;;;;10.30;3.60;;;16.50;99.90;;;;;;4919600;29;20106;-79
2022/06/12 06:41:24;;;;;;;;;;;;;;;;;;;;;
2022/06/12 06:50:46;;;;;;;7.43;2.88;;;16.50;99.90;;;;;;4963781;28;20033;-79
2022/06/12 06:53:32;;;;;;;11.90;3.72;;;16.50;99.90;;;;;;4925220;29;20482;-80
2022/06/12 06:57:06;;;;;;;11.48;3.42;;;16.50;99.90;;;;;;4923847;28;20074;-80
2022/06/12 06:59:46;;;;;;;13.27;3.90;;;16.60;99.90;;;;;;4835807;29;20066;-80
2022/06/12 07:02:23;;;;;;;11.25;3.97;;;16.70;99.90;;;;;;4829100;29;20357;-79
2022/06/12 07:04:58;;;;;;;11.38;3.22;;;16.70;99.90;;;;;;4938558;28;20150;-79
2022/06/12 07:10:43;;;;;;;11.82;3.92;;;16.70;99.90;;;;;;4917840;29;20062;-80
2022/06/12 07:13:50;;;;;;;9.85;4.00;;;16.80;99.90;;;;;;4928765;28;20504;-79
2022/06/12 07:16:35;;;;;;;10.75;5.20;;;16.90;99.90;;;;;;4926894;28;20291;-80
2022/06/12 07:19:05;;;;;;;10.30;3.47;;;16.90;99.90;;;;;;4941547;28;20035;-78
2022/06/12 07:21:48;;;;;;;10.50;4.32;;;17.00;99.90;;;;;;4923373;29;20090;-79
2022/06/12 07:32:24;;;;;;;;;;;;;;;;;;;;;
2022/06/12 07:42:59;;;;;;;9.05;3.75;;;18.80;99.90;;;;;;4974250;23;20430;-80
2022/06/12 07:53:00;;;;;;;7.65;2.83;;;20.50;99.90;;;;;;4861436;29;20060;-80
2022/06/12 07:55:26;;;;;;;9.68;3.33;;;21.00;99.90;;;;;;4928187;23;20050;-80
2022/06/12 07:57:53;;;;;;;7.35;2.92;;;21.50;99.90;;;;;;4939505;28;20035;-80
2022/06/12 08:00:19;;;;;;;8.30;3.05;;;21.90;99.90;;;;;;4947491;29;20162;-80
2022/06/12 08:02:46;;;;;;;9.65;3.10;;;22.20;99.90;;;;;;4955094;28;20484;-80
2022/06/12 08:05:15;;;;;;;8.63;2.90;;;22.60;99.90;;;;;;4959005;28;20043;-79
2022/06/12 08:07:40;;;;;;;7.70;2.63;;;22.90;99.90;;;;;;4919751;29;20490;-81
2022/06/12 08:10:07;;;;;;;12.52;3.83;;;23.20;99.90;;;;;;4903828;29;20038;-79
2022/06/12 08:12:34;;;;;;;7.38;2.60;;;23.40;99.90;;;;;;4908849;29;20094;-81
2022/06/12 08:15:00;;;;;;;9.75;2.83;;;23.70;99.90;;;;;;4910474;29;20035;-80
2022/06/12 08:17:26;;;;;;;8.77;2.42;;;24.00;99.90;;;;;;4920275;29;20099;-80
2022/06/12 08:22:36;;;;;;;9.07;2.75;;;24.50;99.90;;;;;;4929029;29;20384;-81
2022/06/12 08:25:02;;;;;;;9.65;2.92;;;24.70;99.90;;;;;;4924578;29;20122;-81
2022/06/12 08:27:27;;;;;;;6.82;2.50;;;24.90;99.90;;;;;;4929968;29;20040;-80
2022/06/12 08:29:53;;;;;;;5.55;2.50;;;25.00;99.90;;;;;;4918786;29;20039;-80
2022/06/12 08:32:21;;;;;;;9.30;2.75;;;24.90;99.90;;;;;;4928260;29;20497;-80
2022/06/12 08:34:54;;;;;;;7.40;2.83;;;24.80;99.90;;;;;;4939907;29;20533;-80
2022/06/12 08:37:24;;;;;;;6.13;2.50;;;24.80;99.90;;;;;;4928910;29;20040;-80
2022/06/12 08:39:49;;;;;;;6.72;2.38;;;24.80;99.90;;;;;;4897963;29;20048;-81
2022/06/12 08:42:25;;;;;;;10.18;2.83;;;24.70;99.90;;;;;;4932879;29;20038;-81
2022/06/12 08:45:09;;;;;;;8.57;2.75;;;24.60;99.90;;;;;;4918954;29;20044;-82
2022/06/12 08:47:58;;;;;;;8.73;3.10;;;24.70;99.90;;;;;;4942211;29;20051;-81
2022/06/12 08:50:44;;;;;;;7.20;2.58;;;24.90;99.90;;;;;;4929353;29;20090;-80
2022/06/12 08:53:17;;;;;;;8.43;2.60;;;25.20;99.90;;;;;;4896047;29;20050;-80
2022/06/12 08:55:55;;;;;;;7.07;2.33;;;25.40;97.40;;;;;;4918188;29;20439;-80
2022/06/12 08:58:41;;;;;;;7.70;2.42;;;25.60;99.20;;;;;;4938506;29;20052;-82
2022/06/12 09:01:08;;;;;;;7.30;2.40;;;26.00;97.90;;;;;;4934326;29;20462;-80
2022/06/12 09:03:50;;;;;;;8.13;2.85;;;26.30;99.90;;;;;;4907343;29;20406;-80
2022/06/12 09:06:44;;;;;;;5.53;2.40;;;26.60;92.80;;;;;;4924904;29;20449;-80
2022/06/12 09:09:41;;;;;;;5.63;2.33;;;26.70;86.30;;;;;;4930022;29;20083;-80
2022/06/12 09:12:12;;;;;;;6.22;2.42;;;26.90;94.40;;;;;;4910147;29;20573;-79
2022/06/12 09:14:53;;;;;;;5.00;2.20;;;27.20;95.60;;;;;;4906023;29;20517;-80
2022/06/12 09:17:49;;;;;;;6.07;2.13;;;27.20;92.80;;;;;;4923845;29;20054;-80
2022/06/12 09:20:33;;;;;;;5.60;2.10;;;27.20;92.00;;;;;;4918688;29;20055;-81
2022/06/12 09:23:27;;;;;;;4.15;1.98;;;27.30;92.30;;;;;;4907419;29;20036;-79
2022/06/12 09:26:30;;;;;;;6.15;2.08;;;27.00;90.60;;;;;;4915598;29;20506;-80
2022/06/12 09:28:56;;;;;;;6.22;2.08;;;26.30;84.30;;;;;;4916976;29;20427;-79
2022/06/12 09:31:28;;;;;;;5.25;2.30;;;25.80;90.50;;;;;;4929414;29;20311;-81
2022/06/12 09:33:53;;;;;;;7.67;2.10;;;25.90;92.70;;;;;;4924298;29;20067;-80
2022/06/12 09:36:50;;;;;;;5.68;2.00;;;26.30;92.50;;;;;;4908541;29;20689;-80
2022/06/12 09:39:18;;;;;;;4.43;1.83;;;26.40;89.80;;;;;;4916815;29;20534;-78
2022/06/12 09:41:50;;;;;;;4.80;1.85;;;26.20;90.60;;;;;;4916082;29;20103;-78
2022/06/12 09:44:32;;;;;;;5.32;2.20;;;26.30;90.70;;;;;;4912136;29;20043;-79
2022/06/12 09:47:12;;;;;;;3.60;1.65;;;26.60;83.60;;;;;;4924459;29;20183;-78
2022/06/12 09:50:02;;;;;;;4.10;1.45;;;26.70;80.30;;;;;;4936823;29;20511;-78
2022/06/12 09:52:47;;;;;;;5.32;2.05;;;26.70;82.90;;;;;;4911288;29;20063;-79
2022/06/12 09:55:38;;;;;;;3.70;1.40;;;27.00;85.70;;;;;;4894127;29;20040;-79
2022/06/12 09:58:26;;;;;;;3.67;1.50;;;27.40;76.00;;;;;;4917011;29;20039;-78
2022/06/12 10:00:54;;;;;;;3.65;1.40;;;27.70;79.20;;;;;;4916011;29;20486;-79
2022/06/12 10:03:35;;;;;;;5.05;1.35;;;28.10;80.80;;;;;;4903732;29;20391;-79
2022/06/12 10:06:08;;;;;;;2.78;1.13;;;28.30;75.60;;;;;;4921221;29;20047;-79
2022/06/12 10:08:52;;;;;;;2.50;1.00;;;28.50;73.50;;;;;;4904708;29;20075;-79
2022/06/12 10:11:23;;;;;;;2.55;1.30;;;28.50;67.40;;;;;;4917811;29;20052;-80
2022/06/12 10:14:02;;;;;;;3.47;1.20;;;28.10;69.50;;;;;;4920471;29;20066;-79
2022/06/12 10:16:35;;;;;;;4.72;1.30;;;27.90;69.10;;;;;;4904377;29;20043;-79
2022/06/12 10:19:12;;;;;;;5.22;1.23;;;27.80;69.60;;;;;;4904239;29;20071;-79
2022/06/12 10:21:42;;;;;;;3.20;1.25;;;27.90;70.40;;;;;;4920734;29;20478;-80
2022/06/12 10:24:11;;;;;;;3.38;1.23;;;28.10;70.80;;;;;;4886650;29;20032;-79
2022/06/12 10:26:37;;;;;;;2.63;1.10;;;28.30;71.20;;;;;;4902627;29;20542;-80
2022/06/12 10:29:13;;;;;;;4.22;1.42;;;28.40;70.00;;;;;;4906644;29;20042;-79
2022/06/12 10:31:55;;;;;;;2.88;1.10;;;28.50;69.00;;;;;;4905715;29;20044;-79
2022/06/12 10:34:23;;;;;;;3.55;1.52;;;28.40;66.60;;;;;;4919878;29;20063;-79
2022/06/12 10:36:49;;;;;;;2.53;1.27;;;28.40;67.70;;;;;;4920303;29;20051;-80
2022/06/12 10:39:21;;;;;;;3.40;1.00;;;28.40;67.60;;;;;;4920284;29;20046;-80
2022/06/12 10:41:52;;;;;;;3.90;1.20;;;28.40;66.60;;;;;;4921407;29;20036;-79
2022/06/12 10:44:29;;;;;;;4.22;1.40;;;28.40;67.40;;;;;;4905115;29;20036;-80
2022/06/12 10:46:55;;;;;;;4.18;1.30;;;28.40;66.30;;;;;;4921072;29;20067;-80
2022/06/12 10:49:23;;;;;;;3.80;1.20;;;28.40;67.00;;;;;;4920766;29;20074;-80
2022/06/12 10:51:50;;;;;;;4.05;1.33;;;28.20;67.40;;;;;;4938012;29;20036;-80
2022/06/12 10:54:23;;;;;;;1.98;1.08;;;28.20;67.60;;;;;;4920120;29;20047;-80
2022/06/12 10:57:10;;;;;;;3.50;1.45;;;28.30;67.90;;;;;;4919766;29;20544;-80
2022/06/12 10:59:40;;;;;;;4.65;1.30;;;28.40;67.90;;;;;;4904949;29;20047;-81
2022/06/12 11:02:37;;;;;;;3.08;1.30;;;28.60;66.90;;;;;;4920099;29;20043;-79
2022/06/12 11:05:24;;;;;;;5.55;1.35;;;28.70;65.00;;;;;;4920229;29;20435;-79
2022/06/12 11:08:04;;;;;;;2.83;1.02;;;28.70;63.00;;;;;;4919241;29;20123;-80
2022/06/12 11:10:43;;;;;;;4.35;1.25;;;28.80;65.90;;;;;;4903612;29;20491;-79
2022/06/12 11:13:15;;;;;;;3.30;1.25;;;28.80;64.20;;;;;;4935653;29;20043;-79
2022/06/12 11:16:10;;;;;;;3.37;1.17;;;28.80;63.20;;;;;;4920277;29;20410;-79
2022/06/12 11:18:53;;;;;;;3.85;1.30;;;28.80;58.90;;;;;;4901319;29;20491;-80
2022/06/12 11:21:34;;;;;;;3.67;1.10;;;28.70;62.20;;;;;;4904622;29;20047;-79
2022/06/12 11:24:09;;;;;;;2.22;0.90;;;28.80;63.30;;;;;;4903945;29;20046;-79
2022/06/12 11:27:00;;;;;;;3.20;0.98;;;28.70;62.50;;;;;;4920314;29;20134;-78
2022/06/12 11:29:28;;;;;;;2.97;1.02;;;28.70;59.80;;;;;;4918878;29;20058;-79
2022/06/12 11:32:00;;;;;;;3.60;1.00;;;28.70;62.90;;;;;;4919540;29;20122;-80
2022/06/12 11:34:32;;;;;;;2.88;1.00;;;28.70;61.50;;;;;;4918820;29;20049;-79
2022/06/12 11:37:32;;;;;;;3.25;1.10;;;28.70;62.30;;;;;;4919710;29;20537;-78
2022/06/12 11:40:31;;;;;;;1.73;0.93;;;28.70;61.60;;;;;;4935905;29;20043;-79
2022/06/12 11:42:56;;;;;;;2.75;1.00;;;28.60;57.70;;;;;;4917801;29;20047;-80
2022/06/12 11:45:53;;;;;;;3.45;0.98;;;28.60;61.90;;;;;;4918631;29;20401;-80
2022/06/12 11:48:52;;;;;;;2.67;1.00;;;28.70;59.80;;;;;;4899821;29;20048;-80
2022/06/12 11:51:21;;;;;;;3.83;1.00;;;28.60;59.90;;;;;;4884105;29;20040;-79
2022/06/12 11:54:08;;;;;;;3.70;1.20;;;28.60;60.20;;;;;;4889059;29;20154;-79
2022/06/12 11:56:48;;;;;;;4.93;1.10;;;28.70;60.90;;;;;;4922036;29;20054;-78
2022/06/12 11:59:55;;;;;;;3.40;1.30;;;28.60;57.40;;;;;;4911601;29;20054;-78
2022/06/12 12:02:40;;;;;;;3.38;1.10;;;28.40;60.10;;;;;;4838647;29;20050;-78
2022/06/12 12:05:37;;;;;;;5.50;1.00;;;28.30;60.30;;;;;;4913845;29;20066;-78
2022/06/12 12:08:19;;;;;;;2.00;1.05;;;28.30;59.00;;;;;;4916034;29;20051;-79
2022/06/12 12:11:08;;;;;;;2.60;1.00;;;28.10;57.20;;;;;;4918012;29;20044;-78
2022/06/12 12:13:42;;;;;;;1.85;0.70;;;27.80;53.70;;;;;;4934113;29;20032;-79
2022/06/12 12:16:44;;;;;;;4.50;1.08;;;27.60;58.90;;;;;;4901903;29;20431;-79
2022/06/12 12:19:25;;;;;;;3.55;1.20;;;27.70;60.40;;;;;;4897410;29;20056;-79
2022/06/12 12:21:56;;;;;;;4.30;0.80;;;27.90;58.80;;;;;;4918521;29;20107;-79
2022/06/12 12:24:27;;;;;;;3.80;1.00;;;27.90;60.10;;;;;;4900990;29;20047;-79
2022/06/12 12:26:58;;;;;;;2.47;0.93;;;27.90;59.90;;;;;;4920184;29;20077;-79
2022/06/12 12:29:28;;;;;;;5.93;1.17;;;27.90;59.00;;;;;;4934181;29;20044;-80
2022/06/12 12:31:55;;;;;;;3.78;0.95;;;27.90;60.50;;;;;;4902950;29;20040;-78
2022/06/12 12:34:24;;;;;;;2.92;1.05;;;28.00;61.10;;;;;;4939004;29;20039;-80
2022/06/12 12:42:38;;;;;;;3.17;1.10;;;28.10;60.20;;;;;;4929438;29;20144;-82
2022/06/12 12:45:22;;;;;;;2.58;1.00;;;28.00;59.10;;;;;;4926273;29;20046;-79
2022/06/12 12:48:04;;;;;;;2.97;1.10;;;28.10;59.80;;;;;;4924484;29;20395;-79
2022/06/12 12:50:42;;;;;;;2.65;1.20;;;28.20;59.60;;;;;;4911087;29;20110;-80
2022/06/12 12:53:41;;;;;;;3.55;1.05;;;28.10;58.90;;;;;;4921626;29;20087;-81
2022/06/12 12:56:09;;;;;;;3.83;0.90;;;28.10;60.00;;;;;;4911143;29;20035;-79
2022/06/12 12:58:56;;;;;;;3.15;1.20;;;28.10;60.40;;;;;;4931267;29;20036;-80
2022/06/12 13:01:25;;;;;;;2.60;1.10;;;28.10;58.70;;;;;;4910468;29;20047;-78
2022/06/12 13:04:19;;;;;;;3.45;1.20;;;28.30;61.30;;;;;;4919617;29;20872;-80
2022/06/12 13:07:13;;;;;;;3.60;1.25;;;28.30;57.50;;;;;;4908355;29;20134;-80
2022/06/12 13:10:03;;;;;;;3.65;1.08;;;28.30;57.80;;;;;;4904351;29;20097;-81
2022/06/12 13:13:00;;;;;;;3.13;1.10;;;28.30;59.10;;;;;;4923026;29;20563;-79
2022/06/12 13:15:46;;;;;;;2.85;1.08;;;28.50;54.50;;;;;;4943295;29;20063;-80
2022/06/12 13:18:39;;;;;;;2.15;1.02;;;28.70;57.20;;;;;;4895401;29;20122;-79
2022/06/12 13:21:17;;;;;;;;;;;28.70;58.00;;;;;;4923216;29;20552;-79
2022/06/12 13:24:21;;;;;;;3.17;1.33;;;28.70;57.10;;;;;;4924771;29;19985;-79
2022/06/12 13:26:47;;;;;;;3.10;1.23;;;28.70;54.40;;;;;;4925208;29;20105;-79
2022/06/12 13:29:19;;;;;;;4.50;0.90;;;28.70;58.00;;;;;;4895317;29;20511;-79
2022/06/12 13:31:57;;;;;;;2.35;1.15;;;28.70;56.00;;;;;;4900402;29;20070;-80
2022/06/12 13:34:23;;;;;;;2.90;1.10;;;28.40;57.80;;;;;;4907557;29;20127;-79
2022/06/12 13:36:50;;;;;;;2.63;1.00;;;28.30;57.50;;;;;;4900784;29;20043;-80
2022/06/12 13:39:37;;;;;;;3.40;1.10;;;28.40;59.00;;;;;;4924186;29;20039;-79
2022/06/12 13:42:11;;;;;;;4.32;1.20;;;28.50;55.20;;;;;;4922483;29;20099;-79
2022/06/12 13:44:40;;;;;;;2.40;1.10;;;28.50;58.40;;;;;;4910903;29;20032;-79
2022/06/12 13:47:33;;;;;;;3.33;1.30;;;28.50;59.20;;;;;;4926347;29;20565;-80
2022/06/12 13:50:28;;;;;;;3.17;1.17;;;28.30;59.50;;;;;;4903667;29;20377;-79
2022/06/12 13:53:01;;;;;;;4.47;1.20;;;28.10;57.70;;;;;;4921897;29;20074;-80
2022/06/12 13:55:30;;;;;;;3.45;1.30;;;27.90;58.00;;;;;;4946808;23;20069;-80
2022/06/12 13:58:17;;;;;;;4.45;1.33;;;27.80;59.50;;;;;;4927887;28;20051;-79
2022/06/12 14:00:56;;;;;;;3.13;1.50;;;27.70;59.30;;;;;;4921493;28;20031;-78
2022/06/12 14:03:30;;;;;;;2.50;1.10;;;27.60;59.40;;;;;;4934542;28;20078;-79
2022/06/12 14:06:11;;;;;;;4.38;1.38;;;27.30;59.20;;;;;;4941360;28;20093;-78
2022/06/12 14:09:06;;;;;;;4.60;1.45;;;27.00;59.20;;;;;;4923624;28;20397;-80
2022/06/12 14:11:51;;;;;;;4.80;1.48;;;26.50;59.30;;;;;;4943952;28;20046;-80
2022/06/12 14:14:38;;;;;;;2.70;1.40;;;25.90;59.60;;;;;;4922705;28;20191;-80
2022/06/12 14:17:25;;;;;;;4.50;1.45;;;25.40;61.80;;;;;;4930864;28;20038;-80
2022/06/12 14:20:20;;;;;;;3.17;1.20;;;25.40;63.40;;;;;;4917424;28;20035;-79
2022/06/12 14:22:49;;;;;;;5.20;2.03;;;25.60;66.20;;;;;;4922519;28;20042;-79
2022/06/12 14:25:26;;;;;;;6.15;1.48;;;25.90;64.90;;;;;;4928423;28;20035;-79
2022/06/12 14:28:13;;;;;;;3.42;1.45;;;25.70;63.20;;;;;;4940343;29;20050;-79
2022/06/12 14:31:19;;;;;;;5.03;1.58;;;25.60;65.60;;;;;;4929199;29;20491;-79
2022/06/12 14:34:01;;;;;;;4.00;1.50;;;26.00;64.20;;;;;;4940197;29;20094;-79
2022/06/12 14:36:38;;;;;;;5.32;1.75;;;26.20;63.30;;;;;;4954335;28;20042;-80